메인 페이지
METAR-TAF:

METAR-TAF

공항 :

Odiham, 잉글랜드

위도: 51-14N, 경도: 000-57W, 고도: 123m

현재 날씨관측

예보는 53분 전, 03:20시(UTC)에 발표되었습니다.
남서3kt
온도 10°C
습도 87%
기압 1015 hPa
시정 10km 이상

METAR: EGVO 130320Z AUTO 23003KT 9999 BKN089/// 10/08 Q1015

시각: 05:13 (04:13 UTC)

예보

예보는 17 시간 33분 전, 10:40시(UTC)에 발표되었습니다.
예보 대상 시간: 12일 12시부터 12일 24시까지 (UTC)
10kt
시정 10km 이상
고도 2500ft 상공 구름 보통

TAF: EGVO 121040Z 1212/1224 01010KT 9999 SCT025

4,000개 이상의 공항 관측 자료 및 예보 (METAR 및 TAF 보고).

지도상에서 검색 가능한 기상관측소가 노란 점과 빨간 점으로 표시되어 있습니다.

기상관측소 명을 보려면 표시 위로 마우스를 이동하세요.

날씨 관측과 예보를 보려면 클릭하세요.

지도 변경 : 확대하려면 엑스 표시가 있는 녹색 버튼, 축소하려면 빼기 표시가 있는 녹색 버튼, 다음 페이지의 지도를 보려면 녹색 화살표를 클릭하세요.


METAR-TAF: